Baxter, Arkansas
Current Conditions -  °F | °C
As of 12:53 AM on Saturday 01 Nov 2014 (Local Time) from KLLQ Reporting Station
Clear Clear  
Wind Chill:   Ceiling: Unl
Heat Index:   Visibility: 10mi
Dew Point: -3°   Wind: 3mph
Humidity: 55%   Direction: NA
Pressure: 30.35"   Gusts: NA
Location:  33.4898°N, 91.4556°W
Report Text: KLLQ 010553Z AUTO VRB03KT 10SM CLR 06/M03 A3035 RMK AO2 SLP276 T00561028 10128 20056 401830056 51005
Loading
Personal Weather Stations






























Interactive Weather Map
Tropical Storm Tracking
New forecast layout! Learn more

10-Day Weather Forecast

Advertisements
Track Severe Weather on mobile